Time;durP1;ratioP1;P1;durP2;ratioP2;P2;SDS_P1;SDS_P2;PMS_P1;PMS_P2;Temp;Humidity;BMP_temperature;BMP_pressure;BME280_temperature;BME280_humidity;BME280_pressure;Samples;Min_cycle;Max_cycle;Signal;HPM_P1;HPM_P2
2021/05/02 00:00:33;;;;;;;;;;;;;;;14.09;100.00;100017.98;1672863;86;21168;-81
2021/05/02 00:03:02;;;;;;;16.50;8.33;;;;;;;14.08;100.00;100006.80;1670855;86;20439;-80
2021/05/02 00:05:34;;;;;;;14.78;8.60;;;;;;;14.05;100.00;100002.57;1670637;86;21176;-81
2021/05/02 00:08:03;;;;;;;15.68;9.10;;;;;;;14.05;100.00;99996.30;1670328;86;21160;-81
2021/05/02 00:10:32;;;;;;;15.50;8.90;;;;;;;14.02;100.00;99997.55;1670425;86;21381;-82
2021/05/02 00:13:02;;;;;;;19.15;8.53;;;;;;;14.02;100.00;99992.61;1670146;86;21185;-81
2021/05/02 00:15:32;;;;;;;16.50;7.92;;;;;;;14.03;100.00;99991.58;1670191;86;21306;-82
2021/05/02 00:17:59;;;;;;;14.18;7.62;;;;;;;14.01;100.00;99991.77;1671299;85;21625;-81
2021/05/02 00:20:27;;;;;;;14.83;8.20;;;;;;;14.02;100.00;99985.81;1672696;86;21237;-82
2021/05/02 00:22:59;;;;;;;14.87;7.53;;;;;;;14.01;100.00;99982.78;1672428;86;21143;-81
2021/05/02 00:25:30;;;;;;;14.60;7.62;;;;;;;14.00;100.00;99979.73;1672620;86;21293;-81
2021/05/02 00:27:59;;;;;;;15.83;7.45;;;;;;;14.00;100.00;99977.02;1672348;86;21633;-82
2021/05/02 00:30:28;;;;;;;14.10;7.30;;;;;;;14.04;100.00;99978.30;1672211;86;21175;-82
2021/05/02 00:32:56;;;;;;;13.93;8.05;;;;;;;14.05;100.00;99980.82;1671802;86;21664;-82
2021/05/02 00:35:25;;;;;;;15.85;7.97;;;;;;;14.05;100.00;99971.30;1671774;86;21179;-81
2021/05/02 00:37:53;;;;;;;15.65;8.30;;;;;;;14.05;100.00;99972.66;1705945;83;21152;-82
2021/05/02 00:40:39;;;;;;;14.55;8.40;;;;;;;14.06;100.00;99974.89;1786920;80;21129;-82
2021/05/02 00:43:13;;;;;;;13.83;7.97;;;;;;;14.08;100.00;99972.81;1787206;80;21274;-81
2021/05/02 00:46:09;;;;;;;16.80;7.85;;;;;;;14.10;100.00;99972.63;1759982;81;21163;-81
2021/05/02 00:49:00;;;;;;;13.45;7.15;;;;;;;14.14;100.00;99972.54;1855482;77;23405;-81
2021/05/02 00:51:27;;;;;;;14.47;7.97;;;;;;;14.09;100.00;99978.55;1827761;78;21551;-82
2021/05/02 00:54:07;;;;;;;15.63;7.90;;;;;;;14.08;100.00;99976.02;1827958;78;21156;-81
2021/05/02 00:56:42;;;;;;;13.93;7.62;;;;;;;14.08;100.00;99974.66;1827796;78;21133;-82
2021/05/02 00:59:19;;;;;;;16.30;8.10;;;;;;;14.08;100.00;99976.02;1798157;78;21294;-82
2021/05/02 01:01:52;;;;;;;14.90;8.40;;;;;;;14.07;100.00;99972.48;1825067;78;21124;-83
2021/05/02 01:04:24;;;;;;;14.03;7.78;;;;;;;14.04;100.00;99971.00;1827752;78;21101;-81
2021/05/02 01:06:52;;;;;;;15.55;8.53;;;;;;;14.03;100.00;99967.95;1747264;82;21162;-83
2021/05/02 01:09:20;;;;;;;15.13;8.13;;;;;;;14.01;100.00;99963.23;1747275;82;21154;-83
2021/05/02 01:11:48;;;;;;;15.70;8.38;;;;;;;13.97;100.00;99961.95;1747011;82;21171;-82
2021/05/02 01:14:20;;;;;;;15.23;8.48;;;;;;;13.96;100.00;99959.42;1747117;82;21561;-82
2021/05/02 01:16:48;;;;;;;16.80;8.00;;;;;;;13.92;100.00;99949.45;1747291;82;21367;-83
2021/05/02 01:19:15;;;;;;;16.82;8.38;;;;;;;13.89;100.00;99949.84;1734421;82;21176;-82
2021/05/02 01:21:44;;;;;;;17.07;8.40;;;;;;;13.89;100.00;99954.44;1733616;83;21150;-82
2021/05/02 01:24:13;;;;;;;19.85;9.15;;;;;;;13.85;100.00;99951.27;1709645;83;21181;-82
2021/05/02 01:26:43;;;;;;;21.73;9.13;;;;;;;13.83;100.00;99950.11;1733870;83;21567;-82
2021/05/02 01:29:12;;;;;;;17.40;8.15;;;;;;;13.79;100.00;99951.54;1733713;83;21571;-81
2021/05/02 01:31:40;;;;;;;16.30;7.80;;;;;;;13.76;100.00;99955.16;1733213;83;21165;-81
2021/05/02 01:34:08;;;;;;;18.07;8.43;;;;;;;13.70;100.00;99947.77;1733165;83;21591;-82
2021/05/02 01:36:36;;;;;;;17.87;9.43;;;;;;;13.64;100.00;99946.67;1709274;83;21173;-82
2021/05/02 01:39:06;;;;;;;15.40;8.60;;;;;;;13.58;100.00;99942.86;1733254;83;21306;-81
2021/05/02 01:41:35;;;;;;;14.35;8.50;;;;;;;13.51;100.00;99943.31;1733203;83;21173;-81
2021/05/02 01:44:04;;;;;;;17.25;8.88;;;;;;;13.46;100.00;99944.40;1733120;83;21160;-81
2021/05/02 01:46:41;;;;;;;22.70;10.08;;;;;;;13.43;100.00;99940.70;1733853;82;21122;-80
2021/05/02 01:49:10;;;;;;;20.82;10.38;;;;;;;13.39;100.00;99931.27;1730820;83;21185;-81
2021/05/02 01:51:39;;;;;;;17.92;9.88;;;;;;;13.31;100.00;99926.77;1730790;83;21185;-82
2021/05/02 01:54:07;;;;;;;18.77;10.32;;;;;;;13.23;100.00;99932.31;1730511;83;21165;-82
2021/05/02 01:56:34;;;;;;;18.90;10.35;;;;;;;13.17;100.00;99933.05;1730626;83;21192;-82
2021/05/02 01:59:04;;;;;;;21.77;10.82;;;;;;;13.11;100.00;99937.38;1730410;83;21164;-82
2021/05/02 02:01:32;;;;;;;20.10;10.55;;;;;;;13.06;100.00;99945.25;1730247;83;21153;-82
2021/05/02 02:04:02;;;;;;;17.30;10.25;;;;;;;13.00;100.00;99940.59;1730140;83;21164;-82
2021/05/02 02:06:30;;;;;;;19.60;10.70;;;;;;;12.95;100.00;99937.59;1730463;83;21647;-80
2021/05/02 02:09:08;;;;;;;26.15;12.40;;;;;;;12.90;100.00;99944.94;1734860;79;21164;-79
2021/05/02 02:11:37;;;;;;;26.77;11.88;;;;;;;12.85;100.00;99942.78;1725510;83;21556;-79
2021/05/02 02:14:06;;;;;;;23.57;12.50;;;;;;;12.83;100.00;99946.20;1806072;79;21153;-81
2021/05/02 02:16:33;;;;;;;24.10;12.53;;;;;;;12.80;100.00;99940.31;1725122;82;21155;-81
2021/05/02 02:19:03;;;;;;;26.23;14.47;;;;;;;12.79;100.00;99933.22;1822915;78;21244;-81
2021/05/02 02:21:31;;;;;;;26.75;13.25;;;;;;;12.78;100.00;99930.16;1826910;78;21299;-80
2021/05/02 02:23:59;;;;;;;23.47;13.88;;;;;;;12.79;100.00;99931.86;1826938;78;21165;-81
2021/05/02 02:29:20;;;;;;;27.75;16.00;;;;;;;12.79;100.00;99937.28;1758474;81;21136;-79
2021/05/02 02:31:48;;;;;;;27.10;15.18;;;;;;;12.78;100.00;99934.23;1758490;81;21633;-81
2021/05/02 02:34:24;;;;;;;27.30;16.87;;;;;;;12.79;100.00;99930.50;1836314;77;27856;-81
2021/05/02 02:36:52;;;;;;;24.63;15.23;;;;;;;12.78;100.00;99932.35;1811677;79;21129;-79
2021/05/02 02:39:19;;;;;;;24.20;14.40;;;;;;;12.83;100.00;99927.20;1775321;81;21566;-80
2021/05/02 02:41:47;;;;;;;26.33;15.25;;;;;;;12.84;100.00;99930.78;1813721;79;21133;-80
2021/05/02 02:44:15;;;;;;;26.27;15.58;;;;;;;12.82;100.00;99928.75;1753446;81;21281;-80
2021/05/02 02:46:48;;;;;;;26.12;15.45;;;;;;;12.79;100.00;99933.22;1813650;79;21594;-79
2021/05/02 02:49:17;;;;;;;26.07;14.98;;;;;;;12.79;100.00;99935.93;1814412;79;21307;-79
2021/05/02 02:51:44;;;;;;;24.65;14.28;;;;;;;12.81;100.00;99940.13;1814129;79;21164;-80
2021/05/02 02:54:12;;;;;;;27.77;15.20;;;;;;;12.86;100.00;99937.69;1753677;81;21194;-80
2021/05/02 02:56:43;;;;;;;30.62;16.05;;;;;;;12.91;100.00;99933.90;1813771;79;21682;-80
2021/05/02 02:59:19;;;;;;;29.40;15.55;;;;;;;12.97;100.00;99936.36;1813863;79;21148;-79
2021/05/02 03:01:47;;;;;;;26.55;15.30;;;;;;;13.03;100.00;99932.05;1813730;79;21145;-80
2021/05/02 03:04:17;;;;;;;30.20;15.78;;;;;;;13.06;100.00;99933.87;1813541;79;21149;-80
2021/05/02 03:06:45;;;;;;;25.55;15.55;;;;;;;13.09;100.00;99934.02;1774986;81;21143;-80
2021/05/02 03:09:16;;;;;;;26.77;15.98;;;;;;;13.10;100.00;99927.05;1813628;79;21137;-81
2021/05/02 03:11:43;;;;;;;30.52;17.87;;;;;;;13.11;100.00;99926.52;1774944;81;21156;-80
2021/05/02 03:14:13;;;;;;;34.70;17.87;;;;;;;13.10;100.00;99928.89;1791331;79;21126;-81
2021/05/02 03:16:41;;;;;;;29.55;16.12;;;;;;;13.13;100.00;99923.09;1813470;79;21694;-81
2021/05/02 03:19:27;;;;;;;33.38;17.17;;;;;;;13.19;100.00;99917.41;1813581;79;21073;-80
2021/05/02 03:22:02;;;;;;;34.78;19.10;;;;;;;13.22;100.00;99912.97;1813613;79;21165;-81
2021/05/02 03:24:33;;;;;;;34.23;19.00;;;;;;;13.26;100.00;99909.69;1810007;79;21176;-81
2021/05/02 03:27:08;;;;;;;34.80;20.08;;;;;;;13.29;100.00;99912.52;1813603;79;21433;-80
2021/05/02 03:29:39;;;;;;;34.08;18.00;;;;;;;13.32;100.00;99912.17;1813571;79;21137;-79
2021/05/02 03:32:10;;;;;;;31.48;18.98;;;;;;;13.35;100.00;99909.09;1814329;79;21148;-80
2021/05/02 03:34:41;;;;;;;33.55;19.65;;;;;;;13.39;100.00;99915.80;1813662;79;21580;-81
2021/05/02 03:37:15;;;;;;;34.13;19.62;;;;;;;13.42;100.00;99911.35;1813781;79;21278;-80
2021/05/02 03:39:48;;;;;;;31.90;18.50;;;;;;;13.46;100.00;99917.23;1791169;79;21109;-80
2021/05/02 03:42:16;;;;;;;;;;;;;;;13.52;100.00;99919.17;1816463;79;21145;-81
2021/05/02 03:44:44;;;;;;;34.15;19.12;;;;;;;13.60;100.00;99918.22;1790575;79;20118;-81
2021/05/02 03:47:12;;;;;;;36.88;20.62;;;;;;;13.66;100.00;99920.15;1812943;79;21299;-81
2021/05/02 03:49:41;;;;;;;33.30;18.45;;;;;;;13.72;100.00;99921.24;1813147;79;21125;-80
2021/05/02 03:52:08;;;;;;;35.60;18.65;;;;;;;13.77;100.00;99914.70;1790821;79;21121;-79
2021/05/02 03:54:36;;;;;;;34.80;19.20;;;;;;;13.84;100.00;99921.88;1809640;79;21164;-81
2021/05/02 03:57:05;;;;;;;36.38;20.48;;;;;;;13.90;100.00;99924.36;1813130;79;21134;-82
2021/05/02 03:59:33;;;;;;;31.37;19.73;;;;;;;13.96;100.00;99933.07;1813078;79;21687;-81
2021/05/02 04:02:03;;;;;;;33.90;19.62;;;;;;;14.01;100.00;99932.50;1813073;79;21141;-81
2021/05/02 04:04:34;;;;;;;34.58;20.15;;;;;;;14.08;100.00;99933.89;1813061;79;21145;-81
2021/05/02 04:09:46;;;;;;;37.45;21.02;;;;;;;14.24;100.00;99943.14;1815452;77;23501;-80
2021/05/02 04:12:16;;;;;;;34.08;20.72;;;;;;;14.24;100.00;99946.69;1787625;79;21105;-81
2021/05/02 04:14:45;;;;;;;36.55;21.15;;;;;;;14.23;100.00;99950.96;1787345;80;21877;-81
2021/05/02 04:17:14;;;;;;;35.75;21.07;;;;;;;14.25;100.00;99951.59;1786826;80;21290;-82
2021/05/02 04:19:47;;;;;;;36.95;21.73;;;;;;;14.31;100.00;99958.16;1750834;82;21270;-82
2021/05/02 04:22:17;;;;;;;37.35;20.90;;;;;;;14.36;100.00;99957.02;1721220;83;21291;-82
2021/05/02 04:24:46;;;;;;;35.92;20.97;;;;;;;14.40;100.00;99955.07;1720836;83;21165;-81
2021/05/02 04:27:15;;;;;;;39.38;21.82;;;;;;;14.46;100.00;99958.88;1720910;83;21291;-82
2021/05/02 04:29:43;;;;;;;40.95;22.52;;;;;;;14.57;100.00;99961.56;1721211;83;21303;-80
2021/05/02 04:32:10;;;;;;;37.73;21.95;;;;;;;14.62;100.00;99961.84;1721010;83;21145;-83
2021/05/02 04:34:38;;;;;;;38.02;22.40;;;;;;;14.70;100.00;99958.97;1721067;83;21288;-82
2021/05/02 04:37:06;;;;;;;38.80;22.37;;;;;;;14.83;100.00;99951.92;1721113;83;21619;-82
2021/05/02 04:39:34;;;;;;;37.98;21.77;;;;;;;14.95;100.00;99953.03;1721033;83;21300;-82
2021/05/02 04:42:02;;;;;;;35.23;21.60;;;;;;;15.09;100.00;99956.67;1721297;83;21160;-81
2021/05/02 04:44:30;;;;;;;37.60;22.15;;;;;;;15.26;100.00;99955.77;1721107;83;21197;-81
2021/05/02 04:46:58;;;;;;;40.25;23.12;;;;;;;15.43;100.00;99948.09;1721193;83;21137;-80
2021/05/02 04:49:26;;;;;;;38.67;22.77;;;;;;;15.57;100.00;99941.63;1720926;83;21165;-82
2021/05/02 04:51:54;;;;;;;37.28;21.73;;;;;;;15.69;100.00;99945.43;1721372;83;21169;-81
2021/05/02 04:54:21;;;;;;;38.42;22.27;;;;;;;15.94;100.00;99935.32;1721596;83;21701;-81
2021/05/02 04:56:50;;;;;;;41.92;23.07;;;;;;;15.94;100.00;99935.32;1720975;83;21170;-82
2021/05/02 04:59:18;;;;;;;40.75;22.17;;;;;;;16.06;100.00;99936.88;1720946;83;21133;-82
2021/05/02 05:01:45;;;;;;;38.28;21.33;;;;;;;16.17;100.00;99931.34;1721008;83;21149;-81
2021/05/02 05:04:14;;;;;;;42.00;22.52;;;;;;;16.28;100.00;99932.89;1692970;83;21153;-82
2021/05/02 05:06:42;;;;;;;33.90;21.77;;;;;;;16.37;100.00;99931.33;1693279;83;21701;-82
2021/05/02 05:09:10;;;;;;;42.55;23.18;;;;;;;16.42;100.00;99933.72;1710599;83;21162;-81
2021/05/02 05:11:38;;;;;;;39.03;20.80;;;;;;;16.48;100.00;99930.66;1705571;84;21308;-84
2021/05/02 05:14:06;;;;;;;34.95;19.50;;;;;;;16.47;100.00;99922.19;1705852;83;21280;-83
2021/05/02 05:16:34;;;;;;;41.13;22.32;;;;;;;16.51;100.00;99919.33;1705977;84;21568;-83
2021/05/02 05:19:03;;;;;;;34.10;19.55;;;;;;;16.57;100.00;99921.20;1703267;83;21285;-81
2021/05/02 05:21:32;;;;;;;34.65;19.65;;;;;;;16.61;100.00;99914.78;1778196;81;21289;-82
2021/05/02 05:24:00;;;;;;;34.38;21.05;;;;;;;16.72;100.00;99909.22;1778231;81;21136;-82
2021/05/02 05:26:28;;;;;;;36.38;21.00;;;;;;;16.91;100.00;99908.84;1778232;81;21153;-83
2021/05/02 05:28:56;;;;;;;37.60;21.10;;;;;;;17.09;100.00;99907.64;1778361;81;21120;-83
2021/05/02 05:31:25;;;;;;;41.98;22.13;;;;;;;17.23;100.00;99894.22;1778810;81;21181;-84
2021/05/02 05:33:53;;;;;;;40.23;22.55;;;;;;;17.31;100.00;99887.65;1779109;80;21262;-82
2021/05/02 05:36:22;;;;;;;40.28;21.90;;;;;;;17.34;100.00;99891.85;1778751;81;21104;-81
2021/05/02 05:38:50;;;;;;;38.00;21.97;;;;;;;17.37;100.00;99888.66;1778527;81;21140;-83
2021/05/02 05:41:18;;;;;;;35.70;20.00;;;;;;;17.42;100.00;99889.70;1778302;81;21559;-83
2021/05/02 05:43:46;;;;;;;34.15;19.15;;;;;;;17.46;100.00;99889.56;1778450;81;21559;-82
2021/05/02 05:46:14;;;;;;;34.00;19.30;;;;;;;17.53;100.00;99896.36;1778300;81;21180;-83
2021/05/02 05:48:42;;;;;;;34.27;19.73;;;;;;;17.64;100.00;99887.44;1778376;81;21511;-83
2021/05/02 05:51:10;;;;;;;39.73;19.60;;;;;;;17.86;100.00;99891.20;1778426;80;21287;-83
2021/05/02 05:53:38;;;;;;;35.80;20.00;;;;;;;18.17;100.00;99890.31;1778218;81;21159;-82
2021/05/02 05:56:06;;;;;;;34.75;18.62;;;;;;;18.51;100.00;99887.25;1778317;79;21188;-83
2021/05/02 05:58:34;;;;;;;31.65;17.07;;;;;;;18.78;100.00;99871.34;1778250;81;21543;-83
2021/05/02 06:01:02;;;;;;;30.57;16.57;;;;;;;19.01;100.00;99876.69;1778454;80;21129;-82
2021/05/02 06:03:30;;;;;;;31.87;17.60;;;;;;;19.18;100.00;99866.77;1778242;81;21610;-81
2021/05/02 06:05:58;;;;;;;33.78;18.17;;;;;;;19.27;100.00;99857.14;1778201;81;21100;-82
2021/05/02 06:08:26;;;;;;;34.63;17.65;;;;;;;19.42;100.00;99858.61;1782548;80;21550;-84
2021/05/02 06:10:53;;;;;;;29.50;16.10;;;;;;;19.61;100.00;99854.73;1795700;80;21155;-81
2021/05/02 06:13:21;;;;;;;29.48;17.05;;;;;;;19.79;100.00;99857.95;1795829;80;21116;-83
2021/05/02 06:15:49;;;;;;;32.48;17.85;;;;;;;19.86;100.00;99855.11;1796604;80;21096;-82
2021/05/02 06:18:17;;;;;;;34.10;18.85;;;;;;;19.83;100.00;99846.83;1794976;80;21121;-84
2021/05/02 06:20:44;;;;;;;31.97;18.00;;;;;;;19.73;100.00;99850.65;1793673;80;21492;-85
2021/05/02 06:23:12;;;;;;;29.50;16.87;;;;;;;19.66;100.00;99847.18;1793623;80;21117;-85
2021/05/02 06:25:40;;;;;;;30.80;16.90;;;;;;;19.61;100.00;99848.42;1726318;83;21181;-83
2021/05/02 06:28:08;;;;;;;27.15;14.68;;;;;;;19.59;100.00;99847.28;1756399;82;21615;-81
2021/05/02 06:30:35;;;;;;;26.20;14.45;;;;;;;19.61;100.00;99853.36;1726387;83;21137;-85
2021/05/02 06:33:05;;;;;;;25.23;13.10;;;;;;;19.66;100.00;99845.81;1726222;83;21614;-87
2021/05/02 06:35:33;;;;;;;23.18;12.35;;;;;;;19.65;100.00;99842.75;1726657;83;21166;-84
2021/05/02 06:38:02;;;;;;;23.38;13.28;;;;;;;19.58;100.00;99837.91;1726515;83;21204;-86
2021/05/02 06:40:30;;;;;;;24.67;12.37;;;;;;;19.53;100.00;99835.34;1726145;83;21165;-82
2021/05/02 06:42:59;;;;;;;25.90;14.75;;;;;;;19.56;100.00;99842.25;1725978;83;21169;-84
2021/05/02 06:45:27;;;;;;;26.57;13.65;;;;;;;19.77;100.00;99851.87;1726282;83;21683;-84
2021/05/02 06:47:55;;;;;;;25.60;13.28;;;;;;;20.04;100.00;99836.32;1726150;83;21170;-84
2021/05/02 06:50:24;;;;;;;22.55;12.15;;;;;;;20.25;100.00;99839.83;1726170;83;21149;-81
2021/05/02 06:52:52;;;;;;;22.93;11.22;;;;;;;20.51;100.00;99842.34;1726268;83;21157;-84
2021/05/02 06:55:20;;;;;;;22.37;11.15;;;;;;;20.71;100.00;99836.47;1726160;83;21296;-82
2021/05/02 06:57:48;;;;;;;22.13;10.32;;;;;;;20.86;100.00;99835.41;1726849;83;21314;-82
2021/05/02 07:00:17;;;;;;;23.60;11.63;;;;;;;20.91;100.00;99836.89;1726679;83;21310;-83
2021/05/02 07:02:45;;;;;;;23.15;11.12;;;;;;;20.87;100.00;99837.06;1726597;83;21192;-83
2021/05/02 07:05:13;;;;;;;18.80;10.08;;;;;;;20.80;100.00;99834.45;1726518;83;21595;-84
2021/05/02 07:07:41;;;;;;;22.13;11.43;;;;;;;20.80;100.00;99834.45;1726131;83;21161;-82
2021/05/02 07:10:11;;;;;;;22.13;10.50;;;;;;;20.76;100.00;99837.40;1715172;83;21283;-83
2021/05/02 07:12:39;;;;;;;25.05;10.63;;;;;;;20.91;100.00;99841.53;1713162;84;21162;-81
2021/05/02 07:15:08;;;;;;;19.92;10.48;;;;;;;21.17;100.00;99837.38;1779334;81;21165;-85
2021/05/02 07:17:37;;;;;;;19.20;10.48;;;;;;;21.40;100.00;99837.25;1779825;80;21587;-82
2021/05/02 07:20:09;;;;;;;21.90;9.50;;;;;;;21.44;100.00;99837.59;1779343;81;21145;-83
2021/05/02 07:22:36;;;;;;;21.30;10.48;;;;;;;21.46;100.00;99838.75;1713016;83;21142;-81
2021/05/02 07:25:06;;;;;;;20.52;10.60;;;;;;;21.52;100.00;99841.34;1779525;80;21133;-81
2021/05/02 07:27:33;;;;;;;21.02;10.58;;;;;;;21.56;100.00;99840.31;1779403;81;21549;-80
2021/05/02 07:30:02;;;;;;;23.77;11.15;;;;;;;21.56;100.00;99840.31;1713058;84;21248;-82
2021/05/02 07:32:30;;;;;;;23.40;11.50;;;;;;;21.61;100.00;99837.66;1779469;81;21283;-83
2021/05/02 07:34:58;;;;;;;21.75;11.38;;;;;;;21.59;100.00;99834.31;1779510;81;21141;-83
2021/05/02 07:37:26;;;;;;;24.07;11.88;;;;;;;21.60;100.00;99843.70;1779902;81;21129;-82
2021/05/02 07:39:54;;;;;;;22.42;11.53;;;;;;;21.78;100.00;99831.62;1742859;82;21145;-82
2021/05/02 07:42:22;;;;;;;19.23;10.68;;;;;;;22.03;100.00;99830.88;1779320;80;21283;-80
2021/05/02 07:44:52;;;;;;;21.87;10.88;;;;;;;22.15;100.00;99825.59;1742712;82;21169;-79
2021/05/02 07:47:20;;;;;;;22.13;11.38;;;;;;;22.21;100.00;99820.98;1779389;81;21145;-85
2021/05/02 07:49:50;;;;;;;18.77;9.63;;;;;;;22.28;100.00;99808.45;1712931;84;21190;-82
2021/05/02 07:52:17;;;;;;;20.02;10.48;;;;;;;22.43;100.00;99807.81;1779342;81;21322;-78
2021/05/02 07:54:45;;;;;;;22.27;9.18;;;;;;;22.66;100.00;99802.59;1779369;80;21284;-86
2021/05/02 07:57:13;;;;;;;21.15;9.63;;;;;;;22.74;100.00;99800.22;1779435;81;21185;-80
2021/05/02 07:59:41;;;;;;;21.40;10.28;;;;;;;22.61;100.00;99803.91;1713540;83;21154;-81
2021/05/02 08:02:09;;;;;;;22.82;10.72;;;;;;;22.52;100.00;99798.86;1779661;81;21133;-78
2021/05/02 08:04:39;;;;;;;22.73;11.63;;;;;;;22.61;100.00;99791.50;1779339;80;21169;-78
2021/05/02 08:07:07;;;;;;;27.30;11.68;;;;;;;22.67;100.00;99796.00;1749234;81;21158;-83
2021/05/02 08:09:35;;;;;;;26.15;13.85;;;;;;;22.64;100.00;99792.38;1742260;82;21161;-79
2021/05/02 08:12:04;;;;;;;32.50;15.65;;;;;;;22.58;100.00;99798.38;1712654;83;21169;-79
2021/05/02 08:14:33;;;;;;;30.60;16.62;;;;;;;22.57;100.00;99799.45;1712757;84;21280;-78
2021/05/02 08:17:02;;;;;;;25.77;14.38;;;;;;;22.74;100.00;99786.99;1779655;80;21248;-80
2021/05/02 08:19:29;;;;;;;27.27;15.00;;;;;;;22.90;100.00;99794.34;1763548;80;21252;-80
2021/05/02 08:22:02;;;;;;;27.67;15.72;;;;;;;23.00;100.00;99790.88;1762928;81;21142;-80
2021/05/02 08:24:30;;;;;;;26.60;11.65;;;;;;;23.14;100.00;99795.44;1763447;81;21143;-79
2021/05/02 08:26:58;;;;;;;20.97;10.50;;;;;;;23.17;100.00;99791.34;1763384;80;21146;-80
2021/05/02 08:29:26;;;;;;;22.48;10.90;;;;;;;23.07;100.00;99787.92;1763414;80;21139;-79
2021/05/02 08:31:54;;;;;;;22.65;10.43;;;;;;;23.15;100.00;99776.44;1747243;82;21250;-80
2021/05/02 08:34:22;;;;;;;21.70;10.05;;;;;;;23.34;100.00;99789.84;1763300;81;21146;-79
2021/05/02 08:36:51;;;;;;;23.77;12.53;;;;;;;23.37;100.00;99766.69;1760838;81;21186;-80
2021/05/02 08:39:19;;;;;;;27.17;12.15;;;;;;;23.34;100.00;99779.66;1763190;81;21150;-78
2021/05/02 08:41:47;;;;;;;26.02;13.98;;;;;;;23.17;100.00;99774.23;1747552;82;21621;-80
2021/05/02 08:44:17;;;;;;;26.12;10.50;;;;;;;23.15;100.00;99771.47;1763161;80;21280;-80
2021/05/02 08:46:45;;;;;;;22.40;10.72;;;;;;;23.06;100.00;99774.69;1763022;80;21194;-82
2021/05/02 08:49:13;;;;;;;19.42;9.53;;;;;;;23.02;100.00;99776.28;1747277;82;21154;-78
2021/05/02 08:51:41;;;;;;;23.45;9.85;;;;;;;23.12;100.00;99770.05;1763310;80;21155;-82
2021/05/02 08:54:09;;;;;;;23.77;10.88;;;;;;;23.17;100.00;99773.42;1763279;81;21115;-80
2021/05/02 08:56:37;;;;;;;21.95;10.80;;;;;;;23.29;100.00;99766.64;1763240;80;21182;-82
2021/05/02 08:59:07;;;;;;;25.52;11.55;;;;;;;23.64;100.00;99754.23;1747310;82;21265;-79
2021/05/02 09:01:35;;;;;;;22.87;11.38;;;;;;;23.70;100.00;99749.03;1763040;81;21111;-79
2021/05/02 09:04:04;;;;;;;22.73;10.65;;;;;;;23.74;100.00;99749.89;1763359;81;21292;-80
2021/05/02 09:06:33;;;;;;;20.85;10.40;;;;;;;23.80;100.00;99741.41;1763180;81;21111;-81
2021/05/02 09:09:05;;;;;;;20.05;9.60;;;;;;;23.94;100.00;99733.50;1762942;80;21565;-82
2021/05/02 09:11:38;;;;;;;20.60;9.30;;;;;;;24.18;100.00;99742.17;1747397;82;21144;-82
2021/05/02 09:14:24;;;;;;;16.95;7.67;;;;;;;24.38;100.00;99733.70;1763074;81;21111;-81
2021/05/02 09:16:56;;;;;;;16.42;7.83;;;;;;;24.40;100.00;99730.11;1763151;80;21545;-81
2021/05/02 09:19:32;;;;;;;17.60;8.30;;;;;;;24.36;100.00;99731.20;1688218;82;21124;-80
2021/05/02 09:22:13;;;;;;;17.27;8.60;;;;;;;24.28;100.00;99733.67;1688850;85;21187;-83
2021/05/02 09:24:41;;;;;;;14.33;7.55;;;;;;;24.34;100.00;99725.67;1688855;85;21665;-77
2021/05/02 09:27:14;;;;;;;13.98;7.22;;;;;;;24.29;100.00;99722.33;1688904;85;21176;-82
2021/05/02 09:29:45;;;;;;;15.43;7.12;;;;;;;24.06;100.00;99729.13;1688936;85;21192;-80
2021/05/02 09:32:14;;;;;;;14.50;7.17;;;;;;;24.04;100.00;99734.09;1688932;85;21168;-79
2021/05/02 09:34:52;;;;;;;17.62;7.62;;;;;;;24.12;100.00;99730.00;1688921;85;21278;-80
2021/05/02 09:37:32;;;;;;;15.23;7.35;;;;;;;24.17;100.00;99720.34;1812190;77;22656;-81
2021/05/02 09:40:00;;;;;;;18.90;7.50;;;;;;;23.91;100.00;99734.02;1774689;80;21140;-79
2021/05/02 09:42:38;;;;;;;14.78;6.90;;;;;;;23.70;100.00;99742.13;1773053;81;21711;-81
2021/05/02 09:45:11;;;;;;;15.90;7.95;;;;;;;23.49;100.00;99730.10;1773153;81;21145;-83
2021/05/02 09:47:42;;;;;;;19.62;8.48;;;;;;;23.38;100.00;99731.69;1773091;81;21149;-80
2021/05/02 09:50:23;;;;;;;17.07;7.95;;;;;;;23.32;100.00;99728.06;1725196;83;21162;-82
2021/05/02 09:55:45;;;;;;;14.78;7.90;;;;;;;23.94;100.00;99718.84;1855509;77;22835;-81
2021/05/02 09:58:17;;;;;;;18.75;7.78;;;;;;;24.32;100.00;99719.03;1827924;78;21124;-81
2021/05/02 10:00:56;;;;;;;14.40;7.10;;;;;;;24.59;100.00;99716.11;1716304;83;21169;-81
2021/05/02 10:03:25;;;;;;;13.18;6.00;;;;;;;24.62;100.00;99718.34;1716200;84;21303;-82
2021/05/02 10:06:10;;;;;;;14.13;6.47;;;;;;;24.53;100.00;99719.13;1716082;84;21628;-79
2021/05/02 10:08:40;;;;;;;11.95;5.78;;;;;;;24.46;100.00;99709.70;1716082;84;21134;-82
2021/05/02 10:11:11;;;;;;;11.53;6.40;;;;;;;24.46;100.00;99709.70;1716327;84;21161;-81
2021/05/02 10:13:40;;;;;;;18.25;6.50;;;;;;;24.40;100.00;99715.77;1715890;84;21225;-81
2021/05/02 10:16:10;;;;;;;10.48;5.72;;;;;;;24.26;100.00;99711.28;1715961;82;21196;-80
2021/05/02 10:18:38;;;;;;;12.90;6.33;;;;;;;24.14;100.00;99720.34;1706496;84;21610;-83
2021/05/02 10:21:08;;;;;;;16.67;6.58;;;;;;;23.94;100.00;99710.55;1688663;85;21183;-78
2021/05/02 10:23:36;;;;;;;12.55;6.70;;;;;;;23.77;100.00;99706.58;1659538;86;21209;-79
2021/05/02 10:26:06;;;;;;;15.08;7.03;;;;;;;23.64;100.00;99704.56;1688768;85;21129;-79
2021/05/02 10:28:35;;;;;;;14.15;7.03;;;;;;;23.53;100.00;99696.47;1659689;86;21635;-78
2021/05/02 10:31:06;;;;;;;15.40;6.70;;;;;;;23.43;100.00;99693.92;1688700;85;21191;-79
2021/05/02 10:33:42;;;;;;;17.02;7.15;;;;;;;23.31;100.00;99685.83;1659666;86;21158;-80
2021/05/02 10:36:23;;;;;;;13.28;5.90;;;;;;;23.36;100.00;99685.61;1841959;77;23351;-81
2021/05/02 10:38:58;;;;;;;14.55;6.65;;;;;;;23.42;100.00;99688.67;1740408;82;21271;-81
2021/05/02 10:41:38;;;;;;;15.72;6.55;;;;;;;23.43;100.00;99684.27;1738831;82;21304;-80
2021/05/02 10:44:19;;;;;;;10.80;5.25;;;;;;;23.44;100.00;99683.71;1740319;82;21259;-81
2021/05/02 10:46:53;;;;;;;9.43;5.10;;;;;;;23.50;100.00;99673.02;1746885;82;21106;-80
2021/05/02 10:49:26;;;;;;;8.15;5.08;;;;;;;23.61;100.00;99671.15;1740149;82;21603;-79
2021/05/02 10:51:57;;;;;;;6.90;4.50;;;;;;;23.71;100.00;99665.70;1746873;82;21548;-79
2021/05/02 10:54:42;;;;;;;8.30;4.60;;;;;;;23.77;100.00;99667.38;1740369;82;21627;-82
2021/05/02 10:57:34;;;;;;;10.32;4.53;;;;;;;23.76;100.00;99653.83;1746905;82;21150;-83
2021/05/02 11:00:12;;;;;;;8.38;4.53;;;;;;;23.56;100.00;99655.94;1740458;82;21725;-80
2021/05/02 11:02:48;;;;;;;7.95;4.65;;;;;;;23.40;100.00;99650.30;1747050;82;21189;-84
2021/05/02 11:05:18;;;;;;;7.15;4.25;;;;;;;23.29;100.00;99653.55;1740668;82;21157;-80
2021/05/02 11:07:48;;;;;;;10.63;4.25;;;;;;;23.19;100.00;99649.33;1739128;82;21311;-81
2021/05/02 11:10:17;;;;;;;7.67;4.10;;;;;;;23.19;100.00;99639.67;1740668;82;21687;-80
2021/05/02 11:12:48;;;;;;;7.72;4.83;;;;;;;23.31;100.00;99645.83;1739131;82;21683;-80
2021/05/02 11:15:32;;;;;;;12.93;5.33;;;;;;;23.38;100.00;99650.30;1740500;82;21287;-82
2021/05/02 11:18:01;;;;;;;10.88;5.50;;;;;;;23.41;100.00;99646.47;1747297;81;21113;-79
2021/05/02 11:20:50;;;;;;;10.93;5.05;;;;;;;23.43;100.00;99644.83;1749411;82;21177;-82
2021/05/02 11:23:38;;;;;;;8.08;4.30;;;;;;;23.50;100.00;99642.66;1715239;82;21772;-85
2021/05/02 11:26:06;;;;;;;8.83;4.47;;;;;;;23.49;100.00;99639.61;1759310;80;21172;-82
2021/05/02 11:31:40;;;;;;;9.00;4.67;;;;;;;23.63;100.00;99625.61;1811668;77;23498;-79
2021/05/02 11:34:08;;;;;;;9.10;4.50;;;;;;;23.62;100.00;99631.40;1760347;80;21140;-81
2021/05/02 11:36:39;;;;;;;7.60;4.40;;;;;;;23.57;100.00;99628.61;1759961;81;21229;-82
2021/05/02 11:39:35;;;;;;;5.40;3.83;;;;;;;23.43;100.00;99616.68;1760518;81;21153;-83